Belize - Landivar, Belize

5:55 PM CST on October 01, 2016 (GMT -0600)
Astrum Helicopters - Cisco Base | | Change Station

Elev 3 ft 17.50 °N, 88.23 °W | Updated 1 second ago

Scattered Clouds
Scattered Clouds
83.5 °F
Feels Like 92 °F
N
0.0
Wind Variable Wind from NNE
Gusts 3.0 mph

Today
High -- | Low -- °F
--% Chance of Precip.
Yesterday
High -- | Low -- °F
Precip. -- in
Pressure 29.88 in
Visibility 6.2 miles
Clouds Scattered Clouds 1800 ft
Heat Index 92 °F
Dew Point 76 °F
Humidity 79%
Rainfall 0.00 in
Snow Depth Not available.
5:43 AM 5:41 PM
New Moon, 1% visible
METAR MZBZ 012300Z 07008KT 9999 SCT018 29/26 A2988 Q1012 NOSIG RMK CBTOPS/E/NE/W/SW/N
Pressure 29.88 in
Visibility 6.2 miles
Clouds Scattered Clouds 1800 ft
Heat Index 92 °F
Dew Point 76 °F
Humidity 79%
Rainfall 0.00 in
Snow Depth Not available.
5:43 AM 5:41 PM
New Moon, 1% visible
METAR MZBZ 012300Z 07008KT 9999 SCT018 29/26 A2988 Q1012 NOSIG RMK CBTOPS/E/NE/W/SW/N

10-Day Weather Forecast

No radar image for this location.
×

Almanac

Astronomy

Oct. 01, 2016 Rise Set
Actual Time
Civil Twilight
Nautical Twilight
Astronomical Twilight
Moon
Length of Visible Light
Length of Day
Tomorrow will be .
, % of the Moon is Illuminated

Today's Extremes

Country Highs Country Lows

Community

WunderPhotos

Upload Photos

1,943,050 photos uploaded!

WunderBlog® & News

Nearby

Air Quality

  Air Quality AQ Index Pollutant
Not available.

Snow Depth

Station Depth Elevation

Earthquake Activity

City Distance Mag. Time & Date
Minimum magnitude displayed is 2.5.

Coastal Water Temperatures

Place Temperature

Stations

Nearby Weather Stations

Station Location Temp. Windchill Dew Point Humidity Wind Precip. Elev Updated Type